sensor_id;sensor_type;location;lat;lon;timestamp;temperature;humidity
39099;DHT22;24844;52.380;7.018;2022-11-20T00:01:13;-2.20;99.90
39099;DHT22;24844;52.380;7.018;2022-11-20T00:03:39;-2.20;99.90
39099;DHT22;24844;52.380;7.018;2022-11-20T00:06:07;-2.30;99.90
39099;DHT22;24844;52.380;7.018;2022-11-20T00:08:33;-2.30;99.90
39099;DHT22;24844;52.380;7.018;2022-11-20T00:11:06;-2.30;99.90
39099;DHT22;24844;52.380;7.018;2022-11-20T00:13:33;-2.30;99.90
39099;DHT22;24844;52.380;7.018;2022-11-20T00:16:00;-2.30;99.90
39099;DHT22;24844;52.380;7.018;2022-11-20T00:18:27;-2.30;99.90
39099;DHT22;24844;52.380;7.018;2022-11-20T00:20:52;-2.20;99.90
39099;DHT22;24844;52.380;7.018;2022-11-20T00:23:18;-2.20;99.90
39099;DHT22;24844;52.380;7.018;2022-11-20T00:25:44;-2.20;99.90
39099;DHT22;24844;52.380;7.018;2022-11-20T00:28:09;-2.20;99.90
39099;DHT22;24844;52.380;7.018;2022-11-20T00:30:35;-2.10;99.90
39099;DHT22;24844;52.380;7.018;2022-11-20T00:33:00;-2.20;99.90
39099;DHT22;24844;52.380;7.018;2022-11-20T00:35:26;-2.10;99.90
39099;DHT22;24844;52.380;7.018;2022-11-20T00:37:51;-2.00;99.90
39099;DHT22;24844;52.380;7.018;2022-11-20T00:40:17;-2.10;99.90
39099;DHT22;24844;52.380;7.018;2022-11-20T00:42:42;-2.10;99.90
39099;DHT22;24844;52.380;7.018;2022-11-20T00:45:08;-2.20;99.90
39099;DHT22;24844;52.380;7.018;2022-11-20T00:47:34;-2.20;99.90
39099;DHT22;24844;52.380;7.018;2022-11-20T00:49:59;-2.20;99.90
39099;DHT22;24844;52.380;7.018;2022-11-20T00:52:25;-2.20;99.90
39099;DHT22;24844;52.380;7.018;2022-11-20T00:54:50;-2.30;99.90
39099;DHT22;24844;52.380;7.018;2022-11-20T00:57:16;-2.30;99.90
39099;DHT22;24844;52.380;7.018;2022-11-20T00:59:41;-2.30;99.90
39099;DHT22;24844;52.380;7.018;2022-11-20T01:02:07;-2.40;99.90
39099;DHT22;24844;52.380;7.018;2022-11-20T01:04:32;-2.40;99.90
39099;DHT22;24844;52.380;7.018;2022-11-20T01:06:58;-2.30;99.90
39099;DHT22;24844;52.380;7.018;2022-11-20T01:09:23;-2.30;99.90
39099;DHT22;24844;52.380;7.018;2022-11-20T01:11:49;-2.30;99.90
39099;DHT22;24844;52.380;7.018;2022-11-20T01:14:19;-2.70;99.90
39099;DHT22;24844;52.380;7.018;2022-11-20T01:16:49;-2.70;99.90
39099;DHT22;24844;52.380;7.018;2022-11-20T01:19:18;-2.60;99.90
39099;DHT22;24844;52.380;7.018;2022-11-20T01:21:46;-2.70;99.90
39099;DHT22;24844;52.380;7.018;2022-11-20T01:24:14;-2.80;99.90
39099;DHT22;24844;52.380;7.018;2022-11-20T01:26:42;-2.80;99.90
39099;DHT22;24844;52.380;7.018;2022-11-20T01:29:17;-2.60;99.90
39099;DHT22;24844;52.380;7.018;2022-11-20T01:31:43;-2.50;99.90
39099;DHT22;24844;52.380;7.018;2022-11-20T01:34:12;-2.60;99.90
39099;DHT22;24844;52.380;7.018;2022-11-20T01:36:40;-2.70;99.90
39099;DHT22;24844;52.380;7.018;2022-11-20T01:39:15;-3.10;99.90
39099;DHT22;24844;52.380;7.018;2022-11-20T01:41:42;-2.90;99.90
39099;DHT22;24844;52.380;7.018;2022-11-20T01:44:50;-2.70;99.90
39099;DHT22;24844;52.380;7.018;2022-11-20T01:47:20;-2.70;99.90
39099;DHT22;24844;52.380;7.018;2022-11-20T01:49:52;-2.60;99.90
39099;DHT22;24844;52.380;7.018;2022-11-20T01:52:45;-2.70;99.90
39099;DHT22;24844;52.380;7.018;2022-11-20T01:55:20;-2.90;99.90
39099;DHT22;24844;52.380;7.018;2022-11-20T01:57:48;-3.00;99.90
39099;DHT22;24844;52.380;7.018;2022-11-20T02:00:16;-3.10;99.90
39099;DHT22;24844;52.380;7.018;2022-11-20T02:03:07;-3.00;99.90
39099;DHT22;24844;52.380;7.018;2022-11-20T02:06:04;-3.00;99.90
39099;DHT22;24844;52.380;7.018;2022-11-20T02:08:32;-3.10;99.90
39099;DHT22;24844;52.380;7.018;2022-11-20T02:10:58;-3.10;99.90
39099;DHT22;24844;52.380;7.018;2022-11-20T02:13:23;-3.00;99.90
39099;DHT22;24844;52.380;7.018;2022-11-20T02:16:20;-3.00;99.90
39099;DHT22;24844;52.380;7.018;2022-11-20T02:18:46;-3.00;99.90
39099;DHT22;24844;52.380;7.018;2022-11-20T02:24:15;-2.90;99.90
39099;DHT22;24844;52.380;7.018;2022-11-20T02:30:07;-2.90;99.90
39099;DHT22;24844;52.380;7.018;2022-11-20T02:32:23;-3.00;99.90
39099;DHT22;24844;52.380;7.018;2022-11-20T02:34:49;-2.90;99.90
39099;DHT22;24844;52.380;7.018;2022-11-20T02:37:15;-3.00;99.90
39099;DHT22;24844;52.380;7.018;2022-11-20T02:39:42;-2.90;99.90
39099;DHT22;24844;52.380;7.018;2022-11-20T02:42:09;-3.00;99.90
39099;DHT22;24844;52.380;7.018;2022-11-20T02:44:34;-3.00;99.90
39099;DHT22;24844;52.380;7.018;2022-11-20T02:47:00;-2.90;99.90
39099;DHT22;24844;52.380;7.018;2022-11-20T02:49:26;-3.00;99.90
39099;DHT22;24844;52.380;7.018;2022-11-20T02:51:51;-3.10;99.90
39099;DHT22;24844;52.380;7.018;2022-11-20T02:54:17;-3.10;99.90
39099;DHT22;24844;52.380;7.018;2022-11-20T02:56:43;-3.10;99.90
39099;DHT22;24844;52.380;7.018;2022-11-20T02:59:09;-3.10;99.90
39099;DHT22;24844;52.380;7.018;2022-11-20T03:01:35;-3.20;99.90
39099;DHT22;24844;52.380;7.018;2022-11-20T03:04:01;-3.10;99.90
39099;DHT22;24844;52.380;7.018;2022-11-20T03:06:27;-3.30;99.90
39099;DHT22;24844;52.380;7.018;2022-11-20T03:08:52;-3.20;99.90
39099;DHT22;24844;52.380;7.018;2022-11-20T03:11:18;-3.20;99.90
39099;DHT22;24844;52.380;7.018;2022-11-20T03:13:43;-3.30;99.90
39099;DHT22;24844;52.380;7.018;2022-11-20T03:16:12;-3.40;99.90
39099;DHT22;24844;52.380;7.018;2022-11-20T03:18:39;-3.30;99.90
39099;DHT22;24844;52.380;7.018;2022-11-20T03:21:06;-3.20;99.90
39099;DHT22;24844;52.380;7.018;2022-11-20T03:23:32;-3.30;99.90
39099;DHT22;24844;52.380;7.018;2022-11-20T03:26:18;-3.60;99.90
39099;DHT22;24844;52.380;7.018;2022-11-20T03:29:03;-3.50;99.90
39099;DHT22;24844;52.380;7.018;2022-11-20T03:31:35;-3.40;99.90
39099;DHT22;24844;52.380;7.018;2022-11-20T03:34:02;-3.30;99.90
39099;DHT22;24844;52.380;7.018;2022-11-20T03:36:28;-3.30;99.90
39099;DHT22;24844;52.380;7.018;2022-11-20T03:38:55;-3.30;99.90
39099;DHT22;24844;52.380;7.018;2022-11-20T03:41:26;-3.20;99.90
39099;DHT22;24844;52.380;7.018;2022-11-20T03:43:54;-3.20;99.90
39099;DHT22;24844;52.380;7.018;2022-11-20T03:46:20;-3.20;99.90
39099;DHT22;24844;52.380;7.018;2022-11-20T03:48:46;-3.20;99.90
39099;DHT22;24844;52.380;7.018;2022-11-20T03:51:15;-3.20;99.90
39099;DHT22;24844;52.380;7.018;2022-11-20T03:53:43;-3.30;99.90
39099;DHT22;24844;52.380;7.018;2022-11-20T03:56:09;-3.30;99.90
39099;DHT22;24844;52.380;7.018;2022-11-20T03:58:36;-3.40;99.90
39099;DHT22;24844;52.380;7.018;2022-11-20T04:01:24;-3.40;99.90
39099;DHT22;24844;52.380;7.018;2022-11-20T04:03:52;-3.50;99.90
39099;DHT22;24844;52.380;7.018;2022-11-20T04:06:20;-3.40;99.90
39099;DHT22;24844;52.380;7.018;2022-11-20T04:08:46;-3.40;99.90
39099;DHT22;24844;52.380;7.018;2022-11-20T04:11:15;-3.50;99.90
39099;DHT22;24844;52.380;7.018;2022-11-20T04:13:41;-3.50;99.90
39099;DHT22;24844;52.380;7.018;2022-11-20T04:16:09;-3.50;99.90
39099;DHT22;24844;52.380;7.018;2022-11-20T04:18:35;-3.40;99.90
39099;DHT22;24844;52.380;7.018;2022-11-20T04:21:01;-3.40;99.90
39099;DHT22;24844;52.380;7.018;2022-11-20T04:23:27;-3.50;99.90
39099;DHT22;24844;52.380;7.018;2022-11-20T04:25:53;-3.50;99.90
39099;DHT22;24844;52.380;7.018;2022-11-20T04:28:19;-3.50;99.90
39099;DHT22;24844;52.380;7.018;2022-11-20T04:30:45;-3.30;99.90
39099;DHT22;24844;52.380;7.018;2022-11-20T04:33:10;-3.40;99.90
39099;DHT22;24844;52.380;7.018;2022-11-20T04:35:37;-3.40;99.90
39099;DHT22;24844;52.380;7.018;2022-11-20T04:38:03;-3.30;99.90
39099;DHT22;24844;52.380;7.018;2022-11-20T04:40:29;-3.30;99.90
39099;DHT22;24844;52.380;7.018;2022-11-20T04:42:55;-3.30;99.90
39099;DHT22;24844;52.380;7.018;2022-11-20T04:45:21;-3.30;99.90
39099;DHT22;24844;52.380;7.018;2022-11-20T04:47:47;-3.30;99.90
39099;DHT22;24844;52.380;7.018;2022-11-20T04:50:12;-3.30;99.90
39099;DHT22;24844;52.380;7.018;2022-11-20T04:52:38;-3.30;99.90
39099;DHT22;24844;52.380;7.018;2022-11-20T04:55:04;-3.40;99.90
39099;DHT22;24844;52.380;7.018;2022-11-20T04:57:30;-3.40;99.90
39099;DHT22;24844;52.380;7.018;2022-11-20T04:59:55;-3.60;99.90
39099;DHT22;24844;52.380;7.018;2022-11-20T05:02:21;-3.90;99.90
39099;DHT22;24844;52.380;7.018;2022-11-20T05:04:47;-4.00;99.90
39099;DHT22;24844;52.380;7.018;2022-11-20T05:07:12;-3.90;99.90
39099;DHT22;24844;52.380;7.018;2022-11-20T05:09:38;-3.60;99.90
39099;DHT22;24844;52.380;7.018;2022-11-20T05:12:04;-3.50;99.90
39099;DHT22;24844;52.380;7.018;2022-11-20T05:14:29;-3.50;99.90
39099;DHT22;24844;52.380;7.018;2022-11-20T05:16:55;-3.50;99.90
39099;DHT22;24844;52.380;7.018;2022-11-20T05:19:21;-3.50;99.90
39099;DHT22;24844;52.380;7.018;2022-11-20T05:21:46;-3.40;99.90
39099;DHT22;24844;52.380;7.018;2022-11-20T05:24:12;-3.30;99.90
39099;DHT22;24844;52.380;7.018;2022-11-20T05:26:38;-3.20;99.90
39099;DHT22;24844;52.380;7.018;2022-11-20T05:29:04;-3.50;99.90
39099;DHT22;24844;52.380;7.018;2022-11-20T05:31:29;-3.50;99.90
39099;DHT22;24844;52.380;7.018;2022-11-20T05:33:56;-3.40;99.90
39099;DHT22;24844;52.380;7.018;2022-11-20T05:36:22;-3.50;99.90
39099;DHT22;24844;52.380;7.018;2022-11-20T05:38:47;-3.90;99.90
39099;DHT22;24844;52.380;7.018;2022-11-20T05:41:15;-4.00;99.90
39099;DHT22;24844;52.380;7.018;2022-11-20T05:43:43;-3.80;99.90
39099;DHT22;24844;52.380;7.018;2022-11-20T05:46:10;-3.70;99.90
39099;DHT22;24844;52.380;7.018;2022-11-20T05:48:37;-3.70;99.90
39099;DHT22;24844;52.380;7.018;2022-11-20T05:51:04;-3.80;99.90
39099;DHT22;24844;52.380;7.018;2022-11-20T05:53:31;-3.90;99.90
39099;DHT22;24844;52.380;7.018;2022-11-20T05:56:01;-3.70;99.90
39099;DHT22;24844;52.380;7.018;2022-11-20T05:58:28;-3.70;99.90
39099;DHT22;24844;52.380;7.018;2022-11-20T06:00:55;-3.70;99.90
39099;DHT22;24844;52.380;7.018;2022-11-20T06:03:27;-3.70;99.90
39099;DHT22;24844;52.380;7.018;2022-11-20T06:05:53;-3.70;99.90
39099;DHT22;24844;52.380;7.018;2022-11-20T06:08:18;-3.70;99.90
39099;DHT22;24844;52.380;7.018;2022-11-20T06:10:44;-3.70;99.90
39099;DHT22;24844;52.380;7.018;2022-11-20T06:13:09;-3.70;99.90
39099;DHT22;24844;52.380;7.018;2022-11-20T06:15:35;-3.70;99.90
39099;DHT22;24844;52.380;7.018;2022-11-20T06:18:01;-3.70;99.90
39099;DHT22;24844;52.380;7.018;2022-11-20T06:20:26;-3.60;99.90
39099;DHT22;24844;52.380;7.018;2022-11-20T06:22:52;-3.60;99.90
39099;DHT22;24844;52.380;7.018;2022-11-20T06:25:17;-3.70;99.90
39099;DHT22;24844;52.380;7.018;2022-11-20T06:27:43;-3.60;99.90
39099;DHT22;24844;52.380;7.018;2022-11-20T06:30:09;-3.50;99.90
39099;DHT22;24844;52.380;7.018;2022-11-20T06:32:34;-3.40;99.90
39099;DHT22;24844;52.380;7.018;2022-11-20T06:35:00;-3.30;99.90
39099;DHT22;24844;52.380;7.018;2022-11-20T06:37:25;-3.10;99.90
39099;DHT22;24844;52.380;7.018;2022-11-20T06:39:51;-3.00;99.90
39099;DHT22;24844;52.380;7.018;2022-11-20T06:42:17;-3.10;99.90
39099;DHT22;24844;52.380;7.018;2022-11-20T06:44:42;-3.30;99.90
39099;DHT22;24844;52.380;7.018;2022-11-20T06:47:08;-3.40;99.90
39099;DHT22;24844;52.380;7.018;2022-11-20T06:49:33;-4.00;99.90
39099;DHT22;24844;52.380;7.018;2022-11-20T06:51:59;-4.10;99.90
39099;DHT22;24844;52.380;7.018;2022-11-20T06:54:25;-3.80;99.90
39099;DHT22;24844;52.380;7.018;2022-11-20T06:56:50;-3.60;99.90
39099;DHT22;24844;52.380;7.018;2022-11-20T06:59:16;-3.70;99.90
39099;DHT22;24844;52.380;7.018;2022-11-20T07:01:41;-3.60;99.90
39099;DHT22;24844;52.380;7.018;2022-11-20T07:04:07;-3.40;99.90
39099;DHT22;24844;52.380;7.018;2022-11-20T07:06:33;-3.30;99.90
39099;DHT22;24844;52.380;7.018;2022-11-20T07:08:58;-3.40;99.90
39099;DHT22;24844;52.380;7.018;2022-11-20T07:11:24;-3.30;99.90
39099;DHT22;24844;52.380;7.018;2022-11-20T07:13:49;-3.20;99.90
39099;DHT22;24844;52.380;7.018;2022-11-20T07:16:15;-3.20;99.90
39099;DHT22;24844;52.380;7.018;2022-11-20T07:18:40;-3.00;99.90
39099;DHT22;24844;52.380;7.018;2022-11-20T07:21:08;-2.90;99.90
39099;DHT22;24844;52.380;7.018;2022-11-20T07:23:35;-3.00;99.90
39099;DHT22;24844;52.380;7.018;2022-11-20T07:26:05;-2.90;99.90
39099;DHT22;24844;52.380;7.018;2022-11-20T07:28:32;-2.80;99.90
39099;DHT22;24844;52.380;7.018;2022-11-20T07:30:57;-2.80;99.90
39099;DHT22;24844;52.380;7.018;2022-11-20T07:33:23;-2.80;99.90
39099;DHT22;24844;52.380;7.018;2022-11-20T07:35:48;-2.70;99.90
39099;DHT22;24844;52.380;7.018;2022-11-20T07:38:14;-3.00;99.90
39099;DHT22;24844;52.380;7.018;2022-11-20T07:40:40;-2.80;99.90
39099;DHT22;24844;52.380;7.018;2022-11-20T07:43:05;-2.60;99.90
39099;DHT22;24844;52.380;7.018;2022-11-20T07:45:31;-2.50;99.90
39099;DHT22;24844;52.380;7.018;2022-11-20T07:47:56;-2.40;99.90
39099;DHT22;24844;52.380;7.018;2022-11-20T07:50:22;-2.30;99.90
39099;DHT22;24844;52.380;7.018;2022-11-20T07:52:48;-2.20;99.90
39099;DHT22;24844;52.380;7.018;2022-11-20T07:55:14;-2.20;99.90
39099;DHT22;24844;52.380;7.018;2022-11-20T07:57:40;-2.00;99.90
39099;DHT22;24844;52.380;7.018;2022-11-20T08:00:07;-1.90;99.90
39099;DHT22;24844;52.380;7.018;2022-11-20T08:02:36;-1.40;99.90
39099;DHT22;24844;52.380;7.018;2022-11-20T08:05:02;-0.40;99.90
39099;DHT22;24844;52.380;7.018;2022-11-20T08:07:27;0.60;99.90
39099;DHT22;24844;52.380;7.018;2022-11-20T08:09:53;1.30;99.90
39099;DHT22;24844;52.380;7.018;2022-11-20T08:12:20;1.90;99.90
39099;DHT22;24844;52.380;7.018;2022-11-20T08:15:05;2.60;99.90
39099;DHT22;24844;52.380;7.018;2022-11-20T08:17:31;3.30;99.90
39099;DHT22;24844;52.380;7.018;2022-11-20T08:19:57;4.10;99.90
39099;DHT22;24844;52.380;7.018;2022-11-20T08:22:22;3.90;99.00
39099;DHT22;24844;52.380;7.018;2022-11-20T08:24:48;2.90;99.90
39099;DHT22;24844;52.380;7.018;2022-11-20T08:27:13;2.80;99.90
39099;DHT22;24844;52.380;7.018;2022-11-20T08:29:39;4.00;99.90
39099;DHT22;24844;52.380;7.018;2022-11-20T08:32:04;5.00;99.90
39099;DHT22;24844;52.380;7.018;2022-11-20T08:34:30;5.60;99.90
39099;DHT22;24844;52.380;7.018;2022-11-20T08:36:55;6.00;99.70
39099;DHT22;24844;52.380;7.018;2022-11-20T08:39:21;5.70;96.90
39099;DHT22;24844;52.380;7.018;2022-11-20T08:41:47;6.30;99.70
39099;DHT22;24844;52.380;7.018;2022-11-20T08:44:12;7.20;99.90
39099;DHT22;24844;52.380;7.018;2022-11-20T08:46:40;7.80;99.10
39099;DHT22;24844;52.380;7.018;2022-11-20T08:49:10;8.70;99.90
39099;DHT22;24844;52.380;7.018;2022-11-20T08:51:37;9.50;98.80
39099;DHT22;24844;52.380;7.018;2022-11-20T08:54:03;10.20;97.50
39099;DHT22;24844;52.380;7.018;2022-11-20T08:56:30;10.50;92.50
39099;DHT22;24844;52.380;7.018;2022-11-20T08:58:55;10.60;94.10
39099;DHT22;24844;52.380;7.018;2022-11-20T09:01:22;10.70;94.00
39099;DHT22;24844;52.380;7.018;2022-11-20T09:03:48;10.70;95.30
39099;DHT22;24844;52.380;7.018;2022-11-20T09:06:15;9.90;90.10
39099;DHT22;24844;52.380;7.018;2022-11-20T09:08:41;8.80;79.70
39099;DHT22;24844;52.380;7.018;2022-11-20T09:11:06;7.00;94.50
39099;DHT22;24844;52.380;7.018;2022-11-20T09:13:33;6.60;97.50
39099;DHT22;24844;52.380;7.018;2022-11-20T09:16:02;6.80;91.00
39099;DHT22;24844;52.380;7.018;2022-11-20T09:18:29;5.10;96.10
39099;DHT22;24844;52.380;7.018;2022-11-20T09:21:00;5.20;94.60
39099;DHT22;24844;52.380;7.018;2022-11-20T09:23:27;4.60;97.00
39099;DHT22;24844;52.380;7.018;2022-11-20T09:25:52;4.60;99.90
39099;DHT22;24844;52.380;7.018;2022-11-20T09:28:20;4.50;99.90
39099;DHT22;24844;52.380;7.018;2022-11-20T09:30:46;4.00;99.90
39099;DHT22;24844;52.380;7.018;2022-11-20T09:33:11;2.80;99.90
39099;DHT22;24844;52.380;7.018;2022-11-20T09:35:37;2.80;99.90
39099;DHT22;24844;52.380;7.018;2022-11-20T09:38:08;2.60;99.90
39099;DHT22;24844;52.380;7.018;2022-11-20T09:40:38;2.50;99.90
39099;DHT22;24844;52.380;7.018;2022-11-20T09:45:56;3.50;99.90
39099;DHT22;24844;52.380;7.018;2022-11-20T09:51:36;4.30;99.90
39099;DHT22;24844;52.380;7.018;2022-11-20T09:56:25;3.50;99.90
39099;DHT22;24844;52.380;7.018;2022-11-20T09:58:52;3.70;99.90
39099;DHT22;24844;52.380;7.018;2022-11-20T10:01:21;4.10;99.90
39099;DHT22;24844;52.380;7.018;2022-11-20T10:06:47;4.50;99.90
39099;DHT22;24844;52.380;7.018;2022-11-20T10:09:28;4.00;99.90
39099;DHT22;24844;52.380;7.018;2022-11-20T10:23:16;4.80;99.90
39099;DHT22;24844;52.380;7.018;2022-11-20T10:25:57;5.20;99.90
39099;DHT22;24844;52.380;7.018;2022-11-20T10:28:42;6.30;99.50
39099;DHT22;24844;52.380;7.018;2022-11-20T10:31:26;6.10;99.30
39099;DHT22;24844;52.380;7.018;2022-11-20T10:33:54;6.50;99.00
39099;DHT22;24844;52.380;7.018;2022-11-20T10:36:33;7.30;97.40
39099;DHT22;24844;52.380;7.018;2022-11-20T10:39:06;7.60;95.80
39099;DHT22;24844;52.380;7.018;2022-11-20T10:41:38;6.40;97.60
39099;DHT22;24844;52.380;7.018;2022-11-20T10:44:14;6.90;97.10
39099;DHT22;24844;52.380;7.018;2022-11-20T10:46:43;7.20;97.00
39099;DHT22;24844;52.380;7.018;2022-11-20T10:49:17;7.80;95.70
39099;DHT22;24844;52.380;7.018;2022-11-20T10:51:48;7.80;95.70
39099;DHT22;24844;52.380;7.018;2022-11-20T10:55:05;7.50;95.10
39099;DHT22;24844;52.380;7.018;2022-11-20T10:57:19;8.70;94.80
39099;DHT22;24844;52.380;7.018;2022-11-20T11:02:31;9.20;89.60
39099;DHT22;24844;52.380;7.018;2022-11-20T11:05:08;9.90;87.80
39099;DHT22;24844;52.380;7.018;2022-11-20T11:07:38;10.20;87.70
39099;DHT22;24844;52.380;7.018;2022-11-20T11:12:44;10.80;78.00
39099;DHT22;24844;52.380;7.018;2022-11-20T11:15:26;9.40;83.10
39099;DHT22;24844;52.380;7.018;2022-11-20T11:17:53;8.60;83.80
39099;DHT22;24844;52.380;7.018;2022-11-20T11:20:20;7.90;86.00
39099;DHT22;24844;52.380;7.018;2022-11-20T11:22:52;7.40;92.20
39099;DHT22;24844;52.380;7.018;2022-11-20T11:25:35;7.10;93.40
39099;DHT22;24844;52.380;7.018;2022-11-20T11:28:04;6.40;96.10
39099;DHT22;24844;52.380;7.018;2022-11-20T11:30:41;5.30;99.90
39099;DHT22;24844;52.380;7.018;2022-11-20T11:33:11;5.20;99.90
39099;DHT22;24844;52.380;7.018;2022-11-20T11:35:45;5.10;99.60
39099;DHT22;24844;52.380;7.018;2022-11-20T11:38:18;4.80;99.20
39099;DHT22;24844;52.380;7.018;2022-11-20T11:40:45;5.20;99.90
39099;DHT22;24844;52.380;7.018;2022-11-20T11:43:21;5.40;97.80
39099;DHT22;24844;52.380;7.018;2022-11-20T11:46:28;5.40;98.50
39099;DHT22;24844;52.380;7.018;2022-11-20T11:49:13;5.70;98.10
39099;DHT22;24844;52.380;7.018;2022-11-20T11:51:46;5.10;98.50
39099;DHT22;24844;52.380;7.018;2022-11-20T11:56:53;4.90;99.60
39099;DHT22;24844;52.380;7.018;2022-11-20T12:02:32;4.90;99.90
39099;DHT22;24844;52.380;7.018;2022-11-20T12:05:47;4.80;99.90
39099;DHT22;24844;52.380;7.018;2022-11-20T12:08:02;4.60;99.90
39099;DHT22;24844;52.380;7.018;2022-11-20T12:10:47;4.60;99.90
39099;DHT22;24844;52.380;7.018;2022-11-20T12:13:40;4.80;99.90
39099;DHT22;24844;52.380;7.018;2022-11-20T12:16:11;4.70;99.90
39099;DHT22;24844;52.380;7.018;2022-11-20T12:18:39;4.60;99.90
39099;DHT22;24844;52.380;7.018;2022-11-20T12:21:43;4.40;99.90
39099;DHT22;24844;52.380;7.018;2022-11-20T12:24:29;4.50;99.90
39099;DHT22;24844;52.380;7.018;2022-11-20T12:30:08;4.40;99.90
39099;DHT22;24844;52.380;7.018;2022-11-20T12:38:54;4.50;99.90
39099;DHT22;24844;52.380;7.018;2022-11-20T12:41:43;4.60;99.90
39099;DHT22;24844;52.380;7.018;2022-11-20T12:47:28;4.90;99.90
39099;DHT22;24844;52.380;7.018;2022-11-20T12:53:10;4.60;99.90
39099;DHT22;24844;52.380;7.018;2022-11-20T12:56:03;4.50;99.90
39099;DHT22;24844;52.380;7.018;2022-11-20T12:58:50;4.30;99.90
39099;DHT22;24844;52.380;7.018;2022-11-20T13:01:43;4.30;99.90
39099;DHT22;24844;52.380;7.018;2022-11-20T13:05:15;4.20;99.90
39099;DHT22;24844;52.380;7.018;2022-11-20T13:07:16;4.10;99.90
39099;DHT22;24844;52.380;7.018;2022-11-20T13:09:47;4.00;99.90
39099;DHT22;24844;52.380;7.018;2022-11-20T13:12:28;4.20;99.90
39099;DHT22;24844;52.380;7.018;2022-11-20T13:17:40;4.20;99.90
39099;DHT22;24844;52.380;7.018;2022-11-20T13:20:13;4.10;99.90
39099;DHT22;24844;52.380;7.018;2022-11-20T13:25:30;4.10;99.90
39099;DHT22;24844;52.380;7.018;2022-11-20T13:27:58;4.00;99.90
39099;DHT22;24844;52.380;7.018;2022-11-20T13:30:25;4.00;99.90
39099;DHT22;24844;52.380;7.018;2022-11-20T13:35:25;4.20;99.90
39099;DHT22;24844;52.380;7.018;2022-11-20T13:38:09;4.20;99.90
39099;DHT22;24844;52.380;7.018;2022-11-20T13:40:37;4.10;99.90
39099;DHT22;24844;52.380;7.018;2022-11-20T13:43:19;4.10;99.90
39099;DHT22;24844;52.380;7.018;2022-11-20T13:45:56;4.10;99.90
39099;DHT22;24844;52.380;7.018;2022-11-20T13:48:24;4.10;99.90
39099;DHT22;24844;52.380;7.018;2022-11-20T13:59:40;4.00;99.90
39099;DHT22;24844;52.380;7.018;2022-11-20T14:02:13;4.00;99.90
39099;DHT22;24844;52.380;7.018;2022-11-20T14:04:45;4.00;99.90
39099;DHT22;24844;52.380;7.018;2022-11-20T14:07:11;4.10;99.90
39099;DHT22;24844;52.380;7.018;2022-11-20T14:09:37;3.90;99.90
39099;DHT22;24844;52.380;7.018;2022-11-20T14:12:04;4.10;99.90
39099;DHT22;24844;52.380;7.018;2022-11-20T14:14:51;3.80;99.90
39099;DHT22;24844;52.380;7.018;2022-11-20T14:17:32;3.80;99.90
39099;DHT22;24844;52.380;7.018;2022-11-20T14:20:11;3.90;99.90
39099;DHT22;24844;52.380;7.018;2022-11-20T14:22:37;3.90;99.90
39099;DHT22;24844;52.380;7.018;2022-11-20T14:27:39;3.80;99.90
39099;DHT22;24844;52.380;7.018;2022-11-20T14:30:17;3.70;99.90
39099;DHT22;24844;52.380;7.018;2022-11-20T14:32:44;3.60;99.90
39099;DHT22;24844;52.380;7.018;2022-11-20T14:35:18;3.90;99.90
39099;DHT22;24844;52.380;7.018;2022-11-20T14:37:45;3.80;99.90
39099;DHT22;24844;52.380;7.018;2022-11-20T14:40:32;3.60;99.90
39099;DHT22;24844;52.380;7.018;2022-11-20T14:43:00;3.60;99.90
39099;DHT22;24844;52.380;7.018;2022-11-20T14:45:26;3.50;99.90
39099;DHT22;24844;52.380;7.018;2022-11-20T14:47:54;3.50;99.90
39099;DHT22;24844;52.380;7.018;2022-11-20T14:50:24;3.50;99.90
39099;DHT22;24844;52.380;7.018;2022-11-20T14:52:58;3.60;99.90
39099;DHT22;24844;52.380;7.018;2022-11-20T14:55:31;3.50;99.90
39099;DHT22;24844;52.380;7.018;2022-11-20T14:57:59;3.60;99.90
39099;DHT22;24844;52.380;7.018;2022-11-20T15:00:27;3.50;99.90
39099;DHT22;24844;52.380;7.018;2022-11-20T15:02:53;3.50;99.90
39099;DHT22;24844;52.380;7.018;2022-11-20T15:05:21;3.70;99.90
39099;DHT22;24844;52.380;7.018;2022-11-20T15:07:50;3.80;99.90
39099;DHT22;24844;52.380;7.018;2022-11-20T15:10:26;3.80;99.90
39099;DHT22;24844;52.380;7.018;2022-11-20T15:12:54;3.80;99.90
39099;DHT22;24844;52.380;7.018;2022-11-20T15:15:46;4.10;99.90
39099;DHT22;24844;52.380;7.018;2022-11-20T15:18:15;3.80;99.90
39099;DHT22;24844;52.380;7.018;2022-11-20T15:20:41;3.70;99.90
39099;DHT22;24844;52.380;7.018;2022-11-20T15:23:16;3.70;99.90
39099;DHT22;24844;52.380;7.018;2022-11-20T15:25:44;3.60;99.90
39099;DHT22;24844;52.380;7.018;2022-11-20T15:28:21;3.60;99.90
39099;DHT22;24844;52.380;7.018;2022-11-20T15:30:48;3.60;99.90
39099;DHT22;24844;52.380;7.018;2022-11-20T15:33:14;3.70;99.90
39099;DHT22;24844;52.380;7.018;2022-11-20T15:35:40;3.60;99.90
39099;DHT22;24844;52.380;7.018;2022-11-20T15:38:06;3.60;99.90
39099;DHT22;24844;52.380;7.018;2022-11-20T15:40:31;3.60;99.90
39099;DHT22;24844;52.380;7.018;2022-11-20T15:42:57;3.60;99.90
39099;DHT22;24844;52.380;7.018;2022-11-20T15:45:31;3.80;99.90
39099;DHT22;24844;52.380;7.018;2022-11-20T15:47:58;4.00;99.90
39099;DHT22;24844;52.380;7.018;2022-11-20T15:50:29;4.10;99.90
39099;DHT22;24844;52.380;7.018;2022-11-20T15:52:55;4.50;99.90
39099;DHT22;24844;52.380;7.018;2022-11-20T15:55:21;4.40;99.90
39099;DHT22;24844;52.380;7.018;2022-11-20T15:57:46;4.30;99.90
39099;DHT22;24844;52.380;7.018;2022-11-20T16:00:12;3.70;99.90
39099;DHT22;24844;52.380;7.018;2022-11-20T16:02:38;3.80;99.90
39099;DHT22;24844;52.380;7.018;2022-11-20T16:05:04;3.30;99.90
39099;DHT22;24844;52.380;7.018;2022-11-20T16:07:29;3.20;99.90
39099;DHT22;24844;52.380;7.018;2022-11-20T16:09:55;3.50;99.90
39099;DHT22;24844;52.380;7.018;2022-11-20T16:12:21;2.90;99.90
39099;DHT22;24844;52.380;7.018;2022-11-20T16:15:07;2.60;99.90
39099;DHT22;24844;52.380;7.018;2022-11-20T16:17:51;2.50;99.90
39099;DHT22;24844;52.380;7.018;2022-11-20T16:20:17;2.50;99.90
39099;DHT22;24844;52.380;7.018;2022-11-20T16:22:42;2.30;99.90
39099;DHT22;24844;52.380;7.018;2022-11-20T16:25:08;2.40;99.90
39099;DHT22;24844;52.380;7.018;2022-11-20T16:27:33;2.70;99.90
39099;DHT22;24844;52.380;7.018;2022-11-20T16:29:59;2.70;99.90
39099;DHT22;24844;52.380;7.018;2022-11-20T16:32:25;2.60;99.90
39099;DHT22;24844;52.380;7.018;2022-11-20T16:34:50;2.50;99.90
39099;DHT22;24844;52.380;7.018;2022-11-20T16:37:16;2.40;99.90
39099;DHT22;24844;52.380;7.018;2022-11-20T16:39:41;2.50;99.90
39099;DHT22;24844;52.380;7.018;2022-11-20T16:42:07;2.60;99.90
39099;DHT22;24844;52.380;7.018;2022-11-20T16:44:32;2.90;99.90
39099;DHT22;24844;52.380;7.018;2022-11-20T16:46:59;3.10;99.90
39099;DHT22;24844;52.380;7.018;2022-11-20T16:49:24;3.40;99.90
39099;DHT22;24844;52.380;7.018;2022-11-20T16:51:50;3.70;99.90
39099;DHT22;24844;52.380;7.018;2022-11-20T16:54:16;3.70;99.90
39099;DHT22;24844;52.380;7.018;2022-11-20T16:56:41;3.80;99.90
39099;DHT22;24844;52.380;7.018;2022-11-20T16:59:07;3.90;99.90
39099;DHT22;24844;52.380;7.018;2022-11-20T17:01:33;3.90;99.90
39099;DHT22;24844;52.380;7.018;2022-11-20T17:04:02;3.90;99.90
39099;DHT22;24844;52.380;7.018;2022-11-20T17:06:31;4.00;99.90